Airfield :
LOGIN :

Register | Disclaimer

   EN    FR    IT 

 










Legend :    VFR   Marginal VFR   IFR   Intensive IFR   Very Intensive IFR
Visi :
Ceiling :
>= 8 km
>= 3000ft
5 to 8 km
1000 to 3000 ft
1500m to 5 km
500 to 1000 ft
800 to 1500m
200 to 500 ft
< 800m
< 200 ft
Symbols :   Thunderstorms  Fog  Heavy snow  Heavy precipitations  Wind > 20 kt
SIGMETs :     Misc.  Thunderstorms  Icing  Turbulence  Mountain Waves  Volcanic Ashes







- Airport Elevation : 101 ft
- IATA code : HAD


ESMT - Halmstad

CURRENT METAR :
  • 200050Z AUTO 23013KT 4400 DZ FEW003/// BKN005/// BKN011/// 18/17 Q1010 RERA

EXPIRED METARs :
  • 200020Z AUTO 21013KT 3300 +DZ FEW003/// BKN005/// BKN008/// 17/16 Q1010 REDZ RERA
  • 192350Z AUTO 20012KT 3500 RA FEW003/// SCT006/// BKN009/// 17/16 Q1010 REDZ
  • 192320Z AUTO 20010KT 4300 RA FEW006/// SCT008/// BKN017/// 17/16 Q1011
  • 192250Z AUTO 21009KT 8000 DZ FEW000/// SCT028/// 17/16 Q1011
  • 192220Z AUTO 20010KT 170V240 5000 +RA FEW000/// SCT035/// 18/16 Q1012 REDZ REUP

Expired Forecast.
No reported NOTAMs for that airfield.



MET'MAP, your aeronautical weather chart ! - Copyright ORBIFLY December 2007 - Disclaimer

ORBIFLY MET'MAP TEAM :

Programming & Development : Alexandra Zaïnal
Concept & Development : Baudouin d'Aumeries
Co-Development & Prog : Marc-Olivier Méhu
Technical & hardware support : Manuel Goepfert

Contact : metmap@orbifly.com




SOURCES & CREDITS :

   NOAA